Time;durP1;ratioP1;P1;durP2;ratioP2;P2;SDS_P1;SDS_P2;PMS_P1;PMS_P2;Temp;Humidity;BMP_temperature;BMP_pressure;BME280_temperature;BME280_humidity;BME280_pressure;Samples;Min_cycle;Max_cycle;Signal;HPM_P1;HPM_P2
2023/12/15 00:02:14;;;;;;;24.60;18.52;;;8.10;98.20;;;;;;4997878;28;20526;-69
2023/12/15 00:04:39;;;;;;;23.83;16.95;;;8.10;98.20;;;;;;4999602;28;20034;-70
2023/12/15 00:07:05;;;;;;;24.90;15.85;;;8.20;98.20;;;;;;4997866;28;20209;-69
2023/12/15 00:09:31;;;;;;;22.95;16.88;;;8.20;98.20;;;;;;5008651;28;20029;-70
2023/12/15 00:11:56;;;;;;;28.73;16.67;;;8.20;98.20;;;;;;4997964;28;20426;-71
2023/12/15 00:14:22;;;;;;;25.52;16.38;;;8.20;98.20;;;;;;4999766;28;20225;-69
2023/12/15 00:16:47;;;;;;;24.33;16.55;;;8.20;98.20;;;;;;4998320;28;20451;-69
2023/12/15 00:19:13;;;;;;;26.25;16.92;;;8.20;98.20;;;;;;4983375;28;20481;-70
2023/12/15 00:21:39;;;;;;;26.75;15.63;;;8.20;98.30;;;;;;4993239;28;20061;-69
2023/12/15 00:24:08;;;;;;;20.98;15.40;;;8.20;98.30;;;;;;4993431;28;20446;-70
2023/12/15 00:26:34;;;;;;;28.23;17.10;;;8.20;98.30;;;;;;4999056;28;20506;-69
2023/12/15 00:29:00;;;;;;;26.38;16.45;;;8.20;98.30;;;;;;4999372;28;20037;-71
2023/12/15 00:31:25;;;;;;;23.27;16.65;;;8.20;98.30;;;;;;4985799;28;20045;-70
2023/12/15 00:33:51;;;;;;;23.45;17.05;;;8.20;98.40;;;;;;4985715;28;20025;-68
2023/12/15 00:36:17;;;;;;;23.75;17.92;;;8.20;98.40;;;;;;4991402;28;20383;-68
2023/12/15 00:38:42;;;;;;;24.48;17.67;;;8.20;98.40;;;;;;4997860;28;20450;-68
2023/12/15 00:41:08;;;;;;;26.83;17.35;;;8.20;98.40;;;;;;5001764;28;20490;-69
2023/12/15 00:43:33;;;;;;;30.40;19.92;;;8.20;98.50;;;;;;4985420;28;20041;-70
2023/12/15 00:45:59;;;;;;;27.17;18.85;;;8.20;98.40;;;;;;5002198;28;20052;-69
2023/12/15 00:48:25;;;;;;;24.83;18.23;;;8.20;98.40;;;;;;5004039;28;20319;-69
2023/12/15 00:50:50;;;;;;;24.25;18.48;;;8.30;98.50;;;;;;4981904;28;20068;-71
2023/12/15 00:53:16;;;;;;;26.63;18.20;;;8.20;98.40;;;;;;4983609;28;20124;-70
2023/12/15 00:55:41;;;;;;;24.60;18.55;;;8.20;98.50;;;;;;5001286;28;20046;-68
2023/12/15 00:58:07;;;;;;;27.92;19.63;;;8.30;98.50;;;;;;4996141;28;20033;-70
2023/12/15 01:00:32;;;;;;;26.30;18.10;;;8.20;98.40;;;;;;4982811;28;20196;-71
2023/12/15 01:02:58;;;;;;;32.53;19.42;;;8.20;98.50;;;;;;4997590;28;20033;-71
2023/12/15 01:05:24;;;;;;;34.30;22.33;;;8.20;98.50;;;;;;4984717;28;20045;-68
2023/12/15 01:07:49;;;;;;;31.38;22.50;;;8.30;98.50;;;;;;5001762;28;20022;-72
2023/12/15 01:10:15;;;;;;;28.70;21.15;;;8.30;98.50;;;;;;4982880;28;20453;-69
2023/12/15 01:12:41;;;;;;;40.90;26.58;;;8.30;98.50;;;;;;5003542;28;20034;-68
2023/12/15 01:15:07;;;;;;;38.42;26.55;;;8.30;98.40;;;;;;4999088;28;20046;-70
2023/12/15 01:17:32;;;;;;;36.40;25.02;;;8.30;98.50;;;;;;5003691;28;20100;-71
2023/12/15 01:19:58;;;;;;;34.33;25.13;;;8.30;98.50;;;;;;4983848;28;20033;-71
2023/12/15 01:22:23;;;;;;;34.97;26.58;;;8.30;98.50;;;;;;4997475;28;20089;-72
2023/12/15 01:24:49;;;;;;;37.13;25.85;;;8.30;98.50;;;;;;5001500;28;20042;-70
2023/12/15 01:27:15;;;;;;;37.90;26.27;;;8.30;98.50;;;;;;4996012;28;20034;-70
2023/12/15 01:29:40;;;;;;;37.95;26.40;;;8.40;98.50;;;;;;4990048;28;20029;-71
2023/12/15 01:32:06;;;;;;;39.00;25.98;;;8.30;98.50;;;;;;5003608;28;20117;-70
2023/12/15 01:34:32;;;;;;;38.30;25.48;;;8.30;98.50;;;;;;4998794;28;20034;-73
2023/12/15 01:36:57;;;;;;;37.38;25.00;;;8.30;98.50;;;;;;5001117;28;20052;-70
2023/12/15 01:39:23;;;;;;;35.83;24.88;;;8.40;98.50;;;;;;4999451;28;20079;-70
2023/12/15 01:41:48;;;;;;;36.40;25.40;;;8.40;98.50;;;;;;4999529;28;20391;-70
2023/12/15 01:44:14;;;;;;;36.58;24.92;;;8.40;98.50;;;;;;5000918;28;20030;-71
2023/12/15 01:46:40;;;;;;;35.42;25.05;;;8.40;98.50;;;;;;4983809;28;20366;-73
2023/12/15 01:49:06;;;;;;;41.10;27.38;;;8.30;98.50;;;;;;4999138;28;20064;-69
2023/12/15 01:51:32;;;;;;;39.42;26.85;;;8.30;98.50;;;;;;4994242;28;20034;-71
2023/12/15 01:53:57;;;;;;;40.47;26.92;;;8.40;98.50;;;;;;4992294;28;20370;-72
2023/12/15 01:56:23;;;;;;;40.00;25.92;;;8.40;98.60;;;;;;4979683;28;20499;-71
2023/12/15 01:58:49;;;;;;;40.10;26.63;;;8.40;98.60;;;;;;4999476;28;20160;-69
2023/12/15 02:01:14;;;;;;;45.10;27.55;;;8.40;98.60;;;;;;5001144;28;20045;-69
2023/12/15 02:03:40;;;;;;;39.08;26.17;;;8.40;98.60;;;;;;5003239;28;20041;-70
2023/12/15 02:06:06;;;;;;;36.22;24.85;;;8.40;98.60;;;;;;4995779;28;20030;-70
2023/12/15 02:08:31;;;;;;;39.85;26.52;;;8.40;98.60;;;;;;4975922;28;20323;-69
2023/12/15 02:10:57;;;;;;;39.78;27.10;;;8.40;98.60;;;;;;4981745;28;20042;-70
2023/12/15 02:13:23;;;;;;;39.65;26.52;;;8.50;98.60;;;;;;5005307;28;20479;-70
2023/12/15 02:15:48;;;;;;;38.13;25.63;;;8.40;98.60;;;;;;5004505;28;20494;-69
2023/12/15 02:18:14;;;;;;;34.90;24.30;;;8.40;98.60;;;;;;5002461;28;20033;-70
2023/12/15 02:20:39;;;;;;;35.35;25.08;;;8.40;98.60;;;;;;5003153;28;20053;-69
2023/12/15 02:23:05;;;;;;;43.28;27.17;;;8.40;98.60;;;;;;4979263;28;20057;-70
2023/12/15 02:25:31;;;;;;;42.92;27.48;;;8.40;98.60;;;;;;4980458;28;20038;-72
2023/12/15 02:27:56;;;;;;;40.15;26.67;;;8.40;98.60;;;;;;5004481;28;20598;-71
2023/12/15 02:30:22;;;;;;;43.63;27.35;;;8.50;98.70;;;;;;4998462;28;20038;-69
2023/12/15 02:32:48;;;;;;;39.88;27.27;;;8.50;98.70;;;;;;5002223;28;20026;-69
2023/12/15 02:35:14;;;;;;;37.58;26.45;;;8.40;98.60;;;;;;5002010;28;20184;-69
2023/12/15 02:37:40;;;;;;;41.03;27.38;;;8.50;98.70;;;;;;4997038;28;20414;-70
2023/12/15 02:40:06;;;;;;;43.58;28.05;;;8.50;98.70;;;;;;4981344;28;20549;-70
2023/12/15 02:42:32;;;;;;;38.67;27.38;;;8.50;98.70;;;;;;4986050;28;20757;-71
2023/12/15 02:45:00;;;;;;;40.00;27.42;;;8.50;98.70;;;;;;5003324;28;20041;-71
2023/12/15 02:47:26;;;;;;;46.10;31.80;;;8.50;98.70;;;;;;5002761;28;20030;-70
2023/12/15 02:49:54;;;;;;;52.10;31.63;;;8.50;98.70;;;;;;5001404;28;20045;-70
2023/12/15 02:52:20;;;;;;;51.55;31.73;;;8.50;98.70;;;;;;5000972;28;20042;-72
2023/12/15 02:54:46;;;;;;;50.05;32.20;;;8.50;98.70;;;;;;4997306;28;20125;-73
2023/12/15 02:57:11;;;;;;;50.17;33.17;;;8.60;98.60;;;;;;4993415;28;20129;-69
2023/12/15 02:59:37;;;;;;;51.05;33.75;;;8.50;98.60;;;;;;4989066;28;20070;-70
2023/12/15 03:02:03;;;;;;;55.22;33.97;;;8.50;98.60;;;;;;4980919;28;20029;-69
2023/12/15 03:04:29;;;;;;;48.25;31.02;;;8.50;98.70;;;;;;4991301;28;20105;-71
2023/12/15 03:06:55;;;;;;;53.05;33.20;;;8.50;98.60;;;;;;4984731;28;20037;-70
2023/12/15 03:09:21;;;;;;;49.58;32.75;;;8.50;98.60;;;;;;4981177;28;20025;-70
2023/12/15 03:11:46;;;;;;;44.45;32.33;;;8.50;98.70;;;;;;4978374;28;20114;-70
2023/12/15 03:14:12;;;;;;;49.30;32.50;;;8.60;98.70;;;;;;4998337;28;20509;-70
2023/12/15 03:16:38;;;;;;;46.35;31.83;;;8.60;98.80;;;;;;4976979;28;20435;-70
2023/12/15 03:19:03;;;;;;;49.67;33.35;;;8.50;98.70;;;;;;4983592;28;20018;-69
2023/12/15 03:21:29;;;;;;;53.47;33.03;;;8.60;98.80;;;;;;4998404;28;20108;-70
2023/12/15 03:23:55;;;;;;;41.88;30.50;;;8.50;98.80;;;;;;5003563;28;20026;-71
2023/12/15 03:26:21;;;;;;;45.63;31.08;;;8.50;98.80;;;;;;4996131;28;20056;-71
2023/12/15 03:28:47;;;;;;;40.88;29.63;;;8.50;98.80;;;;;;4999844;28;20019;-70
2023/12/15 03:31:12;;;;;;;41.40;28.92;;;8.50;98.80;;;;;;5000238;28;20489;-71
2023/12/15 03:33:38;;;;;;;46.38;31.02;;;8.50;98.90;;;;;;5000624;28;20029;-69
2023/12/15 03:36:05;;;;;;;45.40;32.15;;;8.50;98.90;;;;;;4998458;28;20048;-69
2023/12/15 03:38:32;;;;;;;46.17;31.27;;;8.50;98.90;;;;;;5000627;28;20037;-69
2023/12/15 03:40:57;;;;;;;48.15;29.85;;;8.50;98.90;;;;;;5003859;28;20049;-70
2023/12/15 03:43:23;;;;;;;44.90;29.85;;;8.50;99.00;;;;;;4995828;28;20022;-70
2023/12/15 03:45:49;;;;;;;43.33;30.27;;;8.40;99.00;;;;;;4998786;28;20388;-69
2023/12/15 03:48:15;;;;;;;39.22;28.23;;;8.50;99.00;;;;;;5001163;28;20044;-69
2023/12/15 03:50:40;;;;;;;39.10;27.92;;;8.40;99.00;;;;;;5001588;28;20494;-69
2023/12/15 03:53:06;;;;;;;39.55;28.83;;;8.40;99.00;;;;;;5002351;28;20029;-70
2023/12/15 03:55:31;;;;;;;38.40;27.70;;;8.50;99.00;;;;;;5003076;28;20797;-70
2023/12/15 03:57:57;;;;;;;39.95;28.50;;;8.50;99.00;;;;;;5002874;28;20080;-69
2023/12/15 04:00:23;;;;;;;42.17;28.77;;;8.50;99.00;;;;;;4980596;28;20042;-69
2023/12/15 04:02:48;;;;;;;39.90;27.65;;;8.50;99.00;;;;;;5003548;28;20541;-72
2023/12/15 04:05:14;;;;;;;37.80;27.33;;;8.50;99.00;;;;;;4996888;28;20096;-69
2023/12/15 04:07:40;;;;;;;43.40;26.52;;;8.50;99.00;;;;;;4988013;28;20057;-68
2023/12/15 04:10:06;;;;;;;40.83;27.63;;;8.50;99.00;;;;;;4999509;28;20038;-69
2023/12/15 04:12:32;;;;;;;39.40;27.98;;;8.50;99.00;;;;;;5004600;28;20045;-71
2023/12/15 04:14:57;;;;;;;35.80;25.00;;;8.40;99.00;;;;;;5001792;28;20073;-73
2023/12/15 04:17:23;;;;;;;35.72;25.02;;;8.50;99.10;;;;;;5004021;28;20441;-70
2023/12/15 04:19:48;;;;;;;36.05;24.40;;;8.50;99.10;;;;;;5004602;28;20115;-69
2023/12/15 04:22:14;;;;;;;35.08;24.08;;;8.40;99.10;;;;;;5006975;28;20438;-71
2023/12/15 04:24:40;;;;;;;34.90;23.13;;;8.50;99.10;;;;;;5006626;28;20045;-69
2023/12/15 04:27:06;;;;;;;37.95;25.75;;;8.50;99.10;;;;;;5001919;28;20466;-69
2023/12/15 04:29:31;;;;;;;33.78;22.63;;;8.50;99.10;;;;;;5003659;28;20026;-69
2023/12/15 04:31:57;;;;;;;37.10;24.02;;;8.40;99.10;;;;;;4985841;28;20041;-70
2023/12/15 04:34:22;;;;;;;33.35;23.15;;;8.50;99.10;;;;;;5004373;28;20040;-70
2023/12/15 04:36:48;;;;;;;32.90;21.25;;;8.50;99.10;;;;;;5004196;28;20484;-69
2023/12/15 04:39:14;;;;;;;30.25;21.83;;;8.50;99.10;;;;;;5004322;28;20041;-69
2023/12/15 04:41:39;;;;;;;30.33;21.85;;;8.50;99.10;;;;;;5002782;28;20089;-69
2023/12/15 04:44:05;;;;;;;29.90;22.75;;;8.50;99.10;;;;;;5004689;28;20042;-70
2023/12/15 04:46:31;;;;;;;35.65;22.08;;;8.50;99.10;;;;;;5000166;28;20057;-71
2023/12/15 04:48:59;;;;;;;33.95;22.02;;;8.40;99.10;;;;;;5005635;28;20034;-70
2023/12/15 04:51:25;;;;;;;32.20;22.25;;;8.50;99.20;;;;;;5002590;28;20295;-72
2023/12/15 04:53:51;;;;;;;34.70;22.77;;;8.50;99.10;;;;;;5005243;28;20474;-72
2023/12/15 04:56:17;;;;;;;36.67;22.15;;;8.50;99.10;;;;;;4997981;28;20076;-70
2023/12/15 04:58:43;;;;;;;31.48;21.10;;;8.50;99.10;;;;;;5003148;28;20026;-70
2023/12/15 05:01:10;;;;;;;37.05;21.92;;;8.50;99.10;;;;;;4991046;28;20062;-69
2023/12/15 05:03:37;;;;;;;34.95;21.90;;;8.50;99.10;;;;;;4986897;28;20092;-71
2023/12/15 05:06:02;;;;;;;37.58;22.83;;;8.50;99.10;;;;;;5004060;28;20030;-70
2023/12/15 05:08:28;;;;;;;35.13;21.65;;;8.50;99.10;;;;;;4986414;28;20014;-70
2023/12/15 05:10:54;;;;;;;30.83;20.38;;;8.50;99.10;;;;;;5003403;28;20038;-71
2023/12/15 05:13:19;;;;;;;35.70;22.48;;;8.50;99.10;;;;;;4997873;28;20046;-71
2023/12/15 05:15:45;;;;;;;30.63;21.90;;;8.50;99.10;;;;;;5004853;28;20045;-69
2023/12/15 05:18:10;;;;;;;37.38;22.58;;;8.50;99.00;;;;;;5000640;28;20478;-69
2023/12/15 05:20:37;;;;;;;34.40;21.25;;;8.50;99.00;;;;;;5002330;28;20042;-68
2023/12/15 05:23:05;;;;;;;35.60;20.55;;;8.50;99.00;;;;;;5001164;28;20038;-72
2023/12/15 05:25:31;;;;;;;36.03;20.08;;;8.50;98.90;;;;;;5000851;28;20092;-70
2023/12/15 05:27:57;;;;;;;32.88;21.95;;;8.50;98.90;;;;;;5002970;28;20428;-70
2023/12/15 05:30:23;;;;;;;34.28;20.60;;;8.50;98.80;;;;;;5000330;28;20034;-69
2023/12/15 05:32:48;;;;;;;33.55;21.45;;;8.50;98.80;;;;;;4981563;28;20378;-71
2023/12/15 05:35:14;;;;;;;32.85;21.13;;;8.50;98.80;;;;;;4989758;28;20518;-71
2023/12/15 05:37:40;;;;;;;37.65;20.58;;;8.50;98.70;;;;;;4992459;28;20029;-68
2023/12/15 05:40:09;;;;;;;35.95;20.55;;;8.50;98.70;;;;;;4999769;28;20045;-72
2023/12/15 05:42:35;;;;;;;32.15;19.92;;;8.50;98.70;;;;;;4998841;28;20660;-70
2023/12/15 05:45:01;;;;;;;32.97;19.75;;;8.50;98.70;;;;;;4989572;28;20486;-68
2023/12/15 05:47:27;;;;;;;31.73;19.60;;;8.50;98.70;;;;;;4986823;28;20119;-68
2023/12/15 05:49:53;;;;;;;32.42;19.90;;;8.50;98.60;;;;;;5001515;28;20526;-68
2023/12/15 05:52:19;;;;;;;37.22;19.33;;;8.50;98.50;;;;;;5003924;28;20120;-68
2023/12/15 05:54:45;;;;;;;26.88;18.00;;;8.50;98.50;;;;;;5001705;28;20172;-69
2023/12/15 05:57:10;;;;;;;29.90;18.30;;;8.50;98.50;;;;;;5000508;28;20041;-70
2023/12/15 05:59:36;;;;;;;29.13;17.95;;;8.50;98.50;;;;;;4999776;28;20036;-72
2023/12/15 06:02:02;;;;;;;30.73;17.67;;;8.50;98.40;;;;;;5001792;28;20750;-70
2023/12/15 06:04:27;;;;;;;29.38;17.58;;;8.50;98.40;;;;;;4999188;28;20026;-69
2023/12/15 06:06:53;;;;;;;27.13;18.02;;;8.40;98.30;;;;;;4999360;28;20042;-68
2023/12/15 06:09:19;;;;;;;34.15;18.75;;;8.50;98.30;;;;;;4979376;28;20018;-69
2023/12/15 06:11:45;;;;;;;30.65;17.80;;;8.50;98.30;;;;;;4996560;28;20162;-68
2023/12/15 06:14:11;;;;;;;31.80;19.98;;;8.50;98.40;;;;;;4985242;28;20037;-69
2023/12/15 06:16:36;;;;;;;32.75;21.92;;;8.50;98.30;;;;;;4999586;28;20056;-73
2023/12/15 06:19:03;;;;;;;33.80;24.30;;;8.50;98.30;;;;;;5003665;28;20040;-73
2023/12/15 06:21:29;;;;;;;36.20;24.42;;;8.50;98.30;;;;;;5001204;28;20042;-68
2023/12/15 06:23:55;;;;;;;40.35;25.65;;;8.50;98.30;;;;;;5001131;28;20107;-71
2023/12/15 06:26:26;;;;;;;31.60;23.65;;;8.50;98.30;;;;;;4992464;28;20109;-69
2023/12/15 06:28:53;;;;;;;38.10;22.90;;;8.50;98.30;;;;;;5000386;28;20068;-68
2023/12/15 06:31:19;;;;;;;31.27;20.13;;;8.50;98.20;;;;;;4996627;28;20228;-69
2023/12/15 06:33:45;;;;;;;34.10;19.65;;;8.50;98.20;;;;;;4995558;28;20042;-70
2023/12/15 06:36:11;;;;;;;31.42;18.33;;;8.40;98.10;;;;;;4998283;28;20041;-69
2023/12/15 06:38:44;;;;;;;29.75;19.55;;;8.50;98.10;;;;;;4995242;28;20160;-68
2023/12/15 06:41:13;;;;;;;35.80;21.52;;;8.50;98.10;;;;;;4971852;28;20073;-71
2023/12/15 06:43:43;;;;;;;36.00;20.30;;;8.50;98.00;;;;;;5000982;28;20026;-69
2023/12/15 06:46:09;;;;;;;30.23;18.05;;;8.50;98.00;;;;;;5002887;28;20029;-68
2023/12/15 06:48:35;;;;;;;35.97;19.48;;;8.50;97.90;;;;;;5001791;28;20040;-69
2023/12/15 06:51:01;;;;;;;30.38;17.35;;;8.50;97.90;;;;;;4998757;28;20597;-70
2023/12/15 06:53:27;;;;;;;27.30;17.23;;;8.40;97.80;;;;;;5001769;28;20510;-69
2023/12/15 06:55:53;;;;;;;29.98;18.27;;;8.50;97.80;;;;;;4998967;28;20038;-70
2023/12/15 06:58:19;;;;;;;28.88;16.10;;;8.50;97.80;;;;;;4999872;28;20052;-68
2023/12/15 07:00:44;;;;;;;29.17;16.38;;;8.40;97.70;;;;;;4998251;28;20034;-68
2023/12/15 07:03:10;;;;;;;29.67;17.90;;;8.40;97.70;;;;;;5000792;28;20106;-69
2023/12/15 07:05:36;;;;;;;33.60;16.98;;;8.40;97.80;;;;;;4981062;28;20366;-67
2023/12/15 07:08:02;;;;;;;25.65;15.77;;;8.50;97.80;;;;;;4999924;28;20026;-67
2023/12/15 07:10:29;;;;;;;30.27;16.50;;;8.40;97.70;;;;;;4978910;28;20042;-67
2023/12/15 07:12:55;;;;;;;28.02;16.17;;;8.40;97.70;;;;;;5000575;28;20037;-68
2023/12/15 07:15:20;;;;;;;26.52;15.05;;;8.40;97.70;;;;;;4984624;28;20050;-70
2023/12/15 07:17:46;;;;;;;24.63;16.20;;;8.40;97.60;;;;;;5001906;28;20549;-69
2023/12/15 07:20:12;;;;;;;23.05;14.40;;;8.40;97.60;;;;;;4997085;28;20045;-67
2023/12/15 07:22:37;;;;;;;27.55;14.18;;;8.40;97.60;;;;;;5001146;28;20050;-70
2023/12/15 07:25:03;;;;;;;27.80;15.70;;;8.40;97.60;;;;;;5000940;28;20591;-68
2023/12/15 07:27:30;;;;;;;27.13;14.45;;;8.40;97.60;;;;;;4991433;28;20044;-70
2023/12/15 07:29:55;;;;;;;26.58;13.88;;;8.40;97.40;;;;;;4999860;28;20029;-68
2023/12/15 07:32:21;;;;;;;22.80;14.25;;;8.40;97.40;;;;;;4981094;28;20037;-69
2023/12/15 07:34:47;;;;;;;23.50;14.13;;;8.40;97.40;;;;;;4978117;28;20052;-70
2023/12/15 07:37:12;;;;;;;31.30;14.32;;;8.40;97.30;;;;;;4992059;28;20042;-67
2023/12/15 07:39:38;;;;;;;27.98;12.60;;;8.40;97.20;;;;;;4997758;28;20064;-68
2023/12/15 07:42:04;;;;;;;26.75;13.65;;;8.40;97.00;;;;;;5000480;28;20133;-70
2023/12/15 07:44:30;;;;;;;28.80;13.95;;;8.40;96.90;;;;;;4992720;28;20026;-69
2023/12/15 07:46:56;;;;;;;25.10;12.50;;;8.40;96.90;;;;;;4998824;28;20084;-70
2023/12/15 07:49:22;;;;;;;27.80;11.27;;;8.40;96.80;;;;;;4999371;28;20072;-68
2023/12/15 07:51:49;;;;;;;20.13;10.15;;;8.30;96.40;;;;;;4983045;28;20049;-69
2023/12/15 07:54:16;;;;;;;23.92;11.10;;;8.30;96.10;;;;;;4993932;28;20068;-70
2023/12/15 07:56:42;;;;;;;24.55;9.90;;;8.30;95.70;;;;;;4999862;28;20458;-68
2023/12/15 07:59:08;;;;;;;24.10;9.02;;;8.30;95.60;;;;;;4996129;28;20353;-67
2023/12/15 08:01:34;;;;;;;19.00;8.20;;;8.30;94.80;;;;;;4994344;28;20030;-69
2023/12/15 08:04:00;;;;;;;20.95;8.90;;;8.30;94.30;;;;;;4981755;28;20021;-68
2023/12/15 08:06:26;;;;;;;22.90;8.57;;;8.40;94.10;;;;;;4998779;28;20096;-68
2023/12/15 08:08:52;;;;;;;21.98;8.55;;;8.40;93.90;;;;;;4999953;28;20021;-68
2023/12/15 08:11:18;;;;;;;16.10;7.35;;;8.50;93.70;;;;;;4998630;28;20061;-68
2023/12/15 08:13:44;;;;;;;18.55;8.10;;;8.40;93.60;;;;;;4993630;28;20027;-70
2023/12/15 08:16:11;;;;;;;21.65;8.80;;;8.50;93.50;;;;;;4981455;28;20384;-69
2023/12/15 08:18:37;;;;;;;19.95;8.68;;;8.50;93.30;;;;;;4992683;28;20022;-68
2023/12/15 08:21:02;;;;;;;19.13;8.48;;;8.50;93.10;;;;;;4979465;28;20120;-69
2023/12/15 08:23:28;;;;;;;20.90;8.60;;;8.50;92.90;;;;;;4996410;28;20029;-71
2023/12/15 08:25:54;;;;;;;19.17;9.90;;;8.60;92.80;;;;;;4997779;28;20042;-67
2023/12/15 08:28:20;;;;;;;18.33;9.10;;;8.60;92.70;;;;;;5000323;28;20026;-69
2023/12/15 08:30:49;;;;;;;22.13;9.07;;;8.60;92.60;;;;;;4998906;28;20486;-69
2023/12/15 08:33:15;;;;;;;19.85;8.90;;;8.60;92.60;;;;;;4999015;28;20446;-68
2023/12/15 08:35:41;;;;;;;19.45;9.23;;;8.60;92.60;;;;;;4997322;28;20460;-68
2023/12/15 08:38:07;;;;;;;21.17;7.85;;;8.60;92.40;;;;;;4991999;28;20097;-68
2023/12/15 08:40:32;;;;;;;17.77;6.38;;;8.60;90.70;;;;;;4994231;28;20046;-69
2023/12/15 08:42:58;;;;;;;22.95;7.60;;;8.60;89.90;;;;;;4976988;28;20467;-68
2023/12/15 08:45:24;;;;;;;19.33;7.50;;;8.60;89.50;;;;;;4998402;28;20672;-68
2023/12/15 08:47:50;;;;;;;20.15;8.00;;;8.60;88.80;;;;;;4992472;28;20364;-71
2023/12/15 08:50:15;;;;;;;22.42;7.28;;;8.70;88.60;;;;;;4989089;28;20120;-68
2023/12/15 08:52:43;;;;;;;19.73;8.20;;;8.80;88.40;;;;;;4994405;28;20037;-67
2023/12/15 08:55:09;;;;;;;21.23;7.47;;;8.80;88.50;;;;;;4999644;28;20041;-68
2023/12/15 08:57:34;;;;;;;19.88;7.53;;;8.90;88.30;;;;;;4999950;28;20033;-70
2023/12/15 09:00:00;;;;;;;19.42;7.85;;;8.90;87.60;;;;;;4998590;28;20165;-70
2023/12/15 09:02:26;;;;;;;21.83;7.85;;;8.90;87.80;;;;;;4978850;28;20034;-68
2023/12/15 09:04:52;;;;;;;25.05;8.18;;;9.10;87.40;;;;;;5002034;28;20042;-70
2023/12/15 09:07:18;;;;;;;21.08;8.45;;;9.10;87.20;;;;;;5002540;28;20033;-70
2023/12/15 09:09:44;;;;;;;16.98;7.70;;;9.10;87.40;;;;;;4985002;28;20026;-68
2023/12/15 09:12:10;;;;;;;20.90;8.07;;;9.10;87.30;;;;;;5000349;28;20077;-68
2023/12/15 09:14:37;;;;;;;21.20;8.98;;;9.10;87.30;;;;;;4983736;28;20116;-70
2023/12/15 09:17:03;;;;;;;21.45;8.00;;;9.20;87.00;;;;;;4998286;28;20490;-69
2023/12/15 09:19:29;;;;;;;20.98;9.05;;;9.30;87.20;;;;;;4997814;28;20041;-71
2023/12/15 09:21:55;;;;;;;24.23;9.88;;;9.20;87.20;;;;;;4999381;28;20421;-69
2023/12/15 09:24:21;;;;;;;21.52;8.50;;;9.30;87.10;;;;;;4983035;28;20036;-69
2023/12/15 09:26:47;;;;;;;17.70;8.45;;;9.20;87.10;;;;;;4999683;28;20038;-71
2023/12/15 09:29:14;;;;;;;19.08;8.75;;;9.30;87.20;;;;;;4982091;28;20189;-69
2023/12/15 09:31:42;;;;;;;17.40;8.02;;;9.30;87.10;;;;;;4999328;28;20538;-71
2023/12/15 09:34:08;;;;;;;22.45;8.68;;;9.30;87.30;;;;;;4985530;28;20490;-69
2023/12/15 09:36:34;;;;;;;22.60;8.82;;;9.30;87.50;;;;;;5001159;28;20037;-68
2023/12/15 09:39:00;;;;;;;20.42;7.45;;;9.30;87.30;;;;;;4991617;28;20383;-69
2023/12/15 09:41:27;;;;;;;18.20;7.88;;;9.30;87.60;;;;;;5000191;28;20046;-70
2023/12/15 09:43:54;;;;;;;19.40;7.18;;;9.30;87.50;;;;;;5004857;28;20130;-71
2023/12/15 09:46:21;;;;;;;17.52;7.20;;;9.30;87.60;;;;;;5000173;28;20073;-70
2023/12/15 09:48:48;;;;;;;20.15;7.47;;;9.40;87.60;;;;;;5005056;28;20053;-69
2023/12/15 09:51:23;;;;;;;14.73;7.43;;;9.40;87.70;;;;;;5000794;28;20557;-70
2023/12/15 09:53:49;;;;;;;18.73;7.80;;;9.40;87.80;;;;;;5000974;28;20030;-69
2023/12/15 09:56:15;;;;;;;20.65;8.80;;;9.40;88.00;;;;;;4971894;28;20066;-71
2023/12/15 09:58:42;;;;;;;19.65;8.95;;;9.40;88.00;;;;;;5000580;28;20061;-69
2023/12/15 10:01:08;;;;;;;22.55;7.88;;;9.50;88.10;;;;;;4982896;28;20121;-70
2023/12/15 10:03:34;;;;;;;20.40;7.80;;;9.50;87.90;;;;;;5002980;28;20557;-69
2023/12/15 10:05:59;;;;;;;24.30;7.78;;;9.60;88.10;;;;;;4981760;28;20116;-70
2023/12/15 10:08:25;;;;;;;19.17;7.47;;;9.50;88.00;;;;;;4995798;28;20029;-69
2023/12/15 10:10:51;;;;;;;21.80;8.13;;;9.50;88.30;;;;;;4997633;28;20049;-72
2023/12/15 10:13:17;;;;;;;19.63;7.47;;;9.60;88.30;;;;;;5004662;28;20176;-68
2023/12/15 10:15:43;;;;;;;20.13;8.13;;;9.60;87.90;;;;;;4981089;28;20133;-69
2023/12/15 10:18:11;;;;;;;15.85;7.28;;;9.60;88.20;;;;;;5003654;28;20084;-69
2023/12/15 10:20:38;;;;;;;20.17;7.72;;;9.60;88.10;;;;;;5000122;28;20103;-69
2023/12/15 10:23:06;;;;;;;19.02;7.85;;;9.60;88.30;;;;;;4998118;28;20121;-72
2023/12/15 10:25:35;;;;;;;17.00;6.93;;;9.50;88.20;;;;;;5002318;28;20464;-68
2023/12/15 10:28:03;;;;;;;21.80;8.25;;;9.60;88.00;;;;;;5004816;28;20113;-68
2023/12/15 10:30:29;;;;;;;16.63;7.82;;;9.60;87.80;;;;;;5000885;28;20121;-69
2023/12/15 10:32:58;;;;;;;15.95;6.85;;;9.60;87.30;;;;;;5006622;28;20124;-69
2023/12/15 10:35:25;;;;;;;17.50;7.53;;;9.60;87.40;;;;;;5000764;28;20060;-68
2023/12/15 10:37:52;;;;;;;17.75;6.88;;;9.60;87.30;;;;;;4998970;28;20057;-72
2023/12/15 10:40:17;;;;;;;17.55;7.20;;;9.60;87.40;;;;;;5000487;28;20060;-68
2023/12/15 10:42:44;;;;;;;20.45;7.38;;;9.50;87.20;;;;;;4994819;28;20062;-68
2023/12/15 10:45:10;;;;;;;17.65;8.05;;;9.60;87.10;;;;;;4995168;28;20042;-71
2023/12/15 10:47:36;;;;;;;16.67;7.25;;;9.60;87.00;;;;;;4994347;28;20313;-69
2023/12/15 10:50:02;;;;;;;20.08;6.95;;;9.60;87.00;;;;;;4990401;28;20056;-69
2023/12/15 10:52:28;;;;;;;19.48;7.07;;;9.60;87.10;;;;;;5001185;28;20061;-69
2023/12/15 10:54:55;;;;;;;21.17;7.35;;;9.60;87.00;;;;;;4997170;28;20133;-70
2023/12/15 10:57:20;;;;;;;19.17;7.18;;;9.70;86.70;;;;;;5000218;28;20054;-69
2023/12/15 10:59:50;;;;;;;17.52;7.03;;;9.60;86.90;;;;;;4998550;28;20109;-69
2023/12/15 11:02:19;;;;;;;26.77;7.93;;;9.60;87.10;;;;;;4978736;28;20805;-71
2023/12/15 11:04:48;;;;;;;19.65;7.35;;;9.60;87.10;;;;;;4997158;28;20061;-68
2023/12/15 11:07:18;;;;;;;15.55;7.20;;;9.70;87.10;;;;;;5000336;28;20349;-71
2023/12/15 11:09:44;;;;;;;18.10;7.32;;;9.60;87.20;;;;;;5001685;28;20034;-70
2023/12/15 11:12:29;;;;;;;17.42;6.50;;;9.70;87.20;;;;;;5000573;28;20060;-69
2023/12/15 11:15:00;;;;;;;19.88;7.63;;;9.70;87.30;;;;;;4995823;28;20045;-71
2023/12/15 11:17:27;;;;;;;16.35;6.97;;;9.70;87.20;;;;;;5000246;28;20041;-68
2023/12/15 11:20:08;;;;;;;21.00;7.07;;;9.80;87.00;;;;;;4996877;28;20022;-71
2023/12/15 11:22:57;;;;;;;16.95;7.47;;;9.80;86.90;;;;;;4980895;28;20050;-70
2023/12/15 11:25:29;;;;;;;16.08;6.68;;;9.90;87.00;;;;;;4993880;28;21016;-70
2023/12/15 11:28:07;;;;;;;19.98;7.07;;;10.00;86.80;;;;;;4981026;28;20023;-70
2023/12/15 11:30:36;;;;;;;16.40;6.35;;;10.00;86.60;;;;;;4988406;28;20031;-69
2023/12/15 11:33:22;;;;;;;22.67;7.90;;;10.00;86.50;;;;;;4992618;28;20023;-72
2023/12/15 11:36:08;;;;;;;17.05;6.75;;;10.00;86.50;;;;;;4979167;28;20058;-69
2023/12/15 11:38:35;;;;;;;15.90;6.38;;;10.00;86.40;;;;;;4983745;28;20434;-69
2023/12/15 11:41:04;;;;;;;20.48;6.72;;;10.10;85.90;;;;;;4978877;28;20471;-69
2023/12/15 11:43:31;;;;;;;16.17;6.57;;;10.10;85.80;;;;;;4989776;28;20022;-70
2023/12/15 11:45:57;;;;;;;19.67;7.20;;;10.10;85.70;;;;;;4985337;28;20659;-69
2023/12/15 11:48:23;;;;;;;16.10;5.72;;;10.10;85.80;;;;;;4992152;28;20030;-69
2023/12/15 11:50:49;;;;;;;13.48;5.47;;;10.00;85.60;;;;;;4980522;28;20038;-69
2023/12/15 11:53:15;;;;;;;17.48;6.07;;;10.00;85.50;;;;;;4981407;28;20064;-69
2023/12/15 11:55:42;;;;;;;18.55;6.53;;;10.10;85.40;;;;;;4978813;28;20046;-70
2023/12/15 11:58:09;;;;;;;12.13;5.18;;;10.00;85.10;;;;;;4979643;28;20018;-69
2023/12/15 12:00:35;;;;;;;16.23;5.43;;;10.10;84.50;;;;;;4980541;28;20173;-69
2023/12/15 12:03:00;;;;;;;16.77;4.65;;;10.10;84.30;;;;;;4996517;28;20529;-70
2023/12/15 12:05:30;;;;;;;15.75;5.05;;;10.20;84.10;;;;;;4981411;28;20042;-69
2023/12/15 12:07:57;;;;;;;13.88;4.90;;;10.30;83.50;;;;;;4976547;28;20050;-69
2023/12/15 12:10:31;;;;;;;15.60;4.75;;;10.30;83.60;;;;;;4977627;28;20039;-69
2023/12/15 12:12:57;;;;;;;12.02;4.93;;;10.40;83.70;;;;;;4976421;28;20026;-71
2023/12/15 12:15:23;;;;;;;15.50;5.50;;;10.40;83.70;;;;;;4969956;28;20540;-68
2023/12/15 12:17:50;;;;;;;16.85;6.22;;;10.40;83.20;;;;;;4988645;28;20031;-69
2023/12/15 12:20:15;;;;;;;17.05;6.45;;;10.40;83.70;;;;;;4977613;28;20034;-70
2023/12/15 12:22:45;;;;;;;14.65;5.53;;;10.50;83.90;;;;;;4994718;28;20065;-69
2023/12/15 12:25:15;;;;;;;16.05;5.75;;;10.50;83.90;;;;;;4979756;28;20164;-70
2023/12/15 12:27:41;;;;;;;14.75;6.50;;;10.60;83.40;;;;;;4998498;28;20106;-71
2023/12/15 12:30:11;;;;;;;15.23;6.40;;;10.60;83.60;;;;;;4994284;28;20045;-68
2023/12/15 12:32:37;;;;;;;16.40;7.45;;;10.60;84.00;;;;;;4994952;28;20026;-69
2023/12/15 12:35:03;;;;;;;18.60;7.38;;;10.60;84.10;;;;;;5002598;28;20042;-69
2023/12/15 12:37:33;;;;;;;18.13;6.97;;;10.60;84.60;;;;;;5003951;28;20054;-68